Time;durP1;ratioP1;P1;durP2;ratioP2;P2;SDS_P1;SDS_P2;PMS_P1;PMS_P2;Temp;Humidity;BMP_temperature;BMP_pressure;BME280_temperature;BME280_humidity;BME280_pressure;Samples;Min_cycle;Max_cycle;Signal;HPM_P1;HPM_P2
2023/08/23 00:00:48;;;;;;;6.60;3.80;;;;;;;16.94;100.00;102035.97;5278165;28;20022;-71
2023/08/23 00:03:18;;;;;;;6.47;3.50;;;;;;;16.91;100.00;102032.75;5276194;28;20443;-71
2023/08/23 00:05:49;;;;;;;5.93;4.00;;;;;;;16.85;100.00;102037.03;5284296;28;20103;-71
2023/08/23 00:08:19;;;;;;;7.65;3.90;;;;;;;16.79;100.00;102027.75;5280301;28;20034;-71
2023/08/23 00:11:06;;;;;;;5.57;3.55;;;;;;;16.73;100.00;102028.47;5267016;28;20024;-71
2023/08/23 00:13:37;;;;;;;6.30;2.75;;;;;;;16.65;100.00;102025.78;5277371;28;20020;-71
2023/08/23 00:16:07;;;;;;;10.52;2.80;;;;;;;16.53;100.00;102027.22;5273479;28;20024;-71
2023/08/23 00:18:38;;;;;;;10.52;3.85;;;;;;;16.44;100.00;102022.84;5280545;28;20016;-71
2023/08/23 00:21:08;;;;;;;12.10;4.80;;;;;;;16.38;100.00;102015.44;5275690;28;20380;-71
2023/08/23 00:23:39;;;;;;;8.02;4.20;;;;;;;16.33;100.00;102017.81;5280518;28;20035;-71
2023/08/23 00:26:11;;;;;;;7.03;3.80;;;;;;;16.35;100.00;102018.47;5275084;28;20028;-72
2023/08/23 00:28:43;;;;;;;6.85;3.60;;;;;;;16.38;100.00;102020.84;5266605;28;20128;-71
2023/08/23 00:31:13;;;;;;;15.52;4.90;;;;;;;16.42;100.00;102014.91;5271018;28;20020;-71
2023/08/23 00:33:44;;;;;;;7.82;4.95;;;;;;;16.41;100.00;102012.34;5264197;28;20413;-71
2023/08/23 00:36:14;;;;;;;12.93;4.72;;;;;;;16.37;100.00;102011.03;5262887;28;20203;-71
2023/08/23 00:38:45;;;;;;;10.93;5.30;;;;;;;16.33;100.00;102009.69;5263108;28;20020;-71
2023/08/23 00:41:15;;;;;;;10.30;4.85;;;;;;;16.28;100.00;102010.22;5264164;28;20048;-71
2023/08/23 00:43:46;;;;;;;7.72;5.00;;;;;;;16.27;100.00;102017.50;5264098;28;20046;-71
2023/08/23 00:46:18;;;;;;;10.02;5.13;;;;;;;16.24;100.00;102015.13;5262723;28;20024;-71
2023/08/23 00:48:50;;;;;;;11.25;5.80;;;;;;;16.21;100.00;102014.63;5263590;28;20085;-71
2023/08/23 00:51:21;;;;;;;10.90;6.03;;;;;;;16.18;100.00;102012.28;5263855;28;20028;-71
2023/08/23 00:53:51;;;;;;;11.52;5.35;;;;;;;16.15;100.00;102010.75;5263922;28;20020;-71
2023/08/23 00:56:22;;;;;;;6.45;4.60;;;;;;;16.13;100.00;102011.97;5269305;28;20100;-71
2023/08/23 00:58:52;;;;;;;8.35;5.03;;;;;;;16.07;100.00;102010.81;5284552;28;20035;-71
2023/08/23 01:01:23;;;;;;;11.30;5.05;;;;;;;16.04;100.00;102011.97;5275325;28;20027;-71
2023/08/23 01:03:57;;;;;;;9.05;4.70;;;;;;;16.00;100.00;102018.75;5277019;28;20024;-71
2023/08/23 01:07:03;;;;;;;12.68;5.63;;;;;;;16.00;100.00;102009.78;5274682;28;20031;-71
2023/08/23 01:10:02;;;;;;;9.15;4.65;;;;;;;15.99;100.00;102008.94;5279659;28;20015;-71
2023/08/23 01:12:40;;;;;;;6.90;3.63;;;;;;;15.97;100.00;102002.03;5271376;28;20032;-71
2023/08/23 01:15:13;;;;;;;6.43;4.20;;;;;;;15.96;100.00;102003.03;5270872;28;20489;-71
2023/08/23 01:17:43;;;;;;;12.45;4.75;;;;;;;15.95;100.00;102013.03;5271896;28;20399;-71
2023/08/23 01:20:15;;;;;;;7.72;4.38;;;;;;;15.97;100.00;102010.16;5259041;28;20048;-71
2023/08/23 01:23:23;;;;;;;5.20;3.58;;;;;;;15.93;100.00;102015.06;5263668;28;20052;-71
2023/08/23 01:25:54;;;;;;;5.43;4.00;;;;;;;15.91;100.00;102011.66;5273094;28;20115;-71
2023/08/23 01:28:24;;;;;;;6.50;3.55;;;;;;;15.87;100.00;102009.50;5279816;28;20089;-71
2023/08/23 01:30:59;;;;;;;8.63;2.95;;;;;;;15.85;100.00;102012.38;5263628;28;20028;-73
2023/08/23 01:33:52;;;;;;;8.85;3.33;;;;;;;15.83;100.00;102009.00;5283520;28;20023;-72
2023/08/23 01:36:28;;;;;;;5.18;2.25;;;;;;;15.79;100.00;102011.19;5279641;28;20020;-73
2023/08/23 01:38:59;;;;;;;2.47;1.88;;;;;;;15.74;100.00;102015.44;5274607;28;20447;-73
2023/08/23 01:41:31;;;;;;;5.20;3.72;;;;;;;15.68;100.00;102008.88;5271289;28;20137;-73
2023/08/23 01:44:02;;;;;;;6.22;3.33;;;;;;;15.64;100.00;102010.22;5286870;28;20045;-73
2023/08/23 01:46:34;;;;;;;5.80;3.45;;;;;;;15.62;100.00;102012.22;5266029;28;20032;-74
2023/08/23 01:49:05;;;;;;;6.65;3.88;;;;;;;15.59;100.00;102017.97;5282368;28;20484;-71
2023/08/23 01:51:35;;;;;;;10.55;4.07;;;;;;;15.53;100.00;101997.84;5279702;28;20032;-71
2023/08/23 01:54:06;;;;;;;6.65;4.03;;;;;;;15.48;100.00;102002.09;5281108;28;20354;-71
2023/08/23 01:56:36;;;;;;;9.38;4.30;;;;;;;15.46;100.00;101996.00;5275586;28;20031;-71
2023/08/23 01:59:07;;;;;;;7.30;4.05;;;;;;;15.43;100.00;101996.34;5288778;28;20080;-71
2023/08/23 02:01:37;;;;;;;8.30;4.32;;;;;;;15.40;100.00;101991.28;5277320;28;20028;-71
2023/08/23 02:04:09;;;;;;;6.63;4.25;;;;;;;15.42;100.00;101991.97;5271419;28;20472;-71
2023/08/23 02:06:39;;;;;;;7.45;4.28;;;;;;;15.42;100.00;101989.25;5286747;28;20024;-71
2023/08/23 02:09:10;;;;;;;8.88;3.90;;;;;;;15.37;100.00;101983.53;5272263;28;20457;-71
2023/08/23 02:11:41;;;;;;;7.97;4.40;;;;;;;15.32;100.00;101984.03;5288411;28;20042;-71
2023/08/23 02:14:12;;;;;;;9.15;4.40;;;;;;;15.29;100.00;101990.59;5274490;28;20015;-71
2023/08/23 02:16:43;;;;;;;32.50;4.13;;;;;;;15.30;100.00;101991.44;5285745;28;20031;-71
2023/08/23 02:19:13;;;;;;;6.72;3.72;;;;;;;15.25;100.00;101985.69;5288579;28;20384;-71
2023/08/23 02:21:47;;;;;;;8.57;3.00;;;;;;;15.22;100.00;101995.00;5287754;28;20461;-71
2023/08/23 02:24:17;;;;;;;3.47;1.67;;;;;;;15.16;100.00;101995.69;5277257;28;20081;-71
2023/08/23 02:26:48;;;;;;;8.48;2.55;;;;;;;15.09;100.00;101988.41;5269690;28;20065;-71
2023/08/23 02:29:22;;;;;;;9.88;4.50;;;;;;;15.06;100.00;101986.03;5287689;28;20023;-71
2023/08/23 02:31:52;;;;;;;6.65;4.57;;;;;;;15.00;100.00;101984.84;5274081;28;20026;-71
2023/08/23 02:34:23;;;;;;;6.95;4.38;;;;;;;14.99;100.00;101989.41;5274201;28;20017;-71
2023/08/23 02:36:53;;;;;;;9.25;4.80;;;;;;;14.97;100.00;101998.72;5272378;28;20075;-71
2023/08/23 02:39:24;;;;;;;9.65;4.68;;;;;;;14.96;100.00;101999.69;5287357;28;20024;-71
2023/08/23 02:41:54;;;;;;;8.15;4.00;;;;;;;14.95;100.00;101995.31;5289764;28;20020;-71
2023/08/23 02:44:25;;;;;;;11.88;4.47;;;;;;;14.96;100.00;101986.19;5274070;28;20091;-71
2023/08/23 02:46:55;;;;;;;3.67;2.50;;;;;;;14.93;100.00;101983.84;5285585;28;20034;-71
2023/08/23 02:49:26;;;;;;;6.80;2.45;;;;;;;14.95;100.00;101987.22;5273674;28;20020;-71
2023/08/23 02:51:56;;;;;;;4.55;3.22;;;;;;;14.97;100.00;101979.81;5287429;28;20020;-71
2023/08/23 02:54:26;;;;;;;7.47;3.63;;;;;;;14.96;100.00;101983.50;5286295;28;20431;-71
2023/08/23 02:56:57;;;;;;;5.18;3.35;;;;;;;14.91;100.00;101981.31;5273127;28;20036;-71
2023/08/23 02:59:27;;;;;;;6.57;3.67;;;;;;;14.87;100.00;101985.34;5265866;28;20024;-71
2023/08/23 03:01:58;;;;;;;10.50;3.30;;;;;;;14.82;100.00;101990.41;5266646;28;20024;-71
2023/08/23 03:04:28;;;;;;;9.80;3.10;;;;;;;14.73;100.00;101976.03;5270397;28;20015;-71
2023/08/23 03:06:59;;;;;;;13.07;2.90;;;;;;;14.69;100.00;101979.25;5270802;28;20028;-71
2023/08/23 03:09:29;;;;;;;3.78;1.90;;;;;;;14.63;100.00;101969.94;5274862;28;20023;-71
2023/08/23 03:12:00;;;;;;;4.95;2.33;;;;;;;14.62;100.00;101962.03;5267170;28;20088;-73
2023/08/23 03:14:30;;;;;;;7.22;2.70;;;;;;;14.65;100.00;101965.22;5266461;28;20012;-73
2023/08/23 03:17:01;;;;;;;3.25;2.50;;;;;;;14.64;100.00;101971.63;5264370;28;20032;-73
2023/08/23 03:19:32;;;;;;;3.42;2.60;;;;;;;14.66;100.00;101974.16;5266144;28;20024;-73
2023/08/23 03:22:03;;;;;;;5.07;2.75;;;;;;;14.65;100.00;101964.38;5266871;28;20477;-73
2023/08/23 03:24:33;;;;;;;2.85;2.30;;;;;;;14.61;100.00;101968.41;5266021;28;20024;-73
2023/08/23 03:27:04;;;;;;;6.30;2.63;;;;;;;14.57;100.00;101965.22;5264676;28;20046;-73
2023/08/23 03:29:34;;;;;;;3.13;2.35;;;;;;;14.55;100.00;101960.97;5265692;28;20028;-73
2023/08/23 03:32:05;;;;;;;3.78;2.88;;;;;;;14.51;100.00;101960.47;5265875;28;20024;-73
2023/08/23 03:34:35;;;;;;;7.53;3.90;;;;;;;14.48;100.00;101971.59;5265944;28;20052;-73
2023/08/23 03:37:06;;;;;;;6.57;3.75;;;;;;;14.45;100.00;101966.47;5264473;28;20028;-73
2023/08/23 03:39:37;;;;;;;7.40;3.35;;;;;;;14.45;100.00;101979.97;5265852;28;20099;-70
2023/08/23 03:42:08;;;;;;;7.90;3.80;;;;;;;14.45;100.00;101971.88;5265297;28;20042;-70
2023/08/23 03:44:38;;;;;;;4.25;2.65;;;;;;;14.44;100.00;101965.63;5265673;28;20016;-71
2023/08/23 03:47:09;;;;;;;5.32;2.90;;;;;;;14.44;100.00;101975.59;5264192;28;20031;-71
2023/08/23 03:49:39;;;;;;;4.93;2.67;;;;;;;14.42;100.00;101974.94;5266217;28;20110;-71
2023/08/23 03:52:10;;;;;;;3.85;2.90;;;;;;;14.37;100.00;101979.97;5265405;28;20020;-71
2023/08/23 03:54:40;;;;;;;8.77;3.50;;;;;;;14.35;100.00;101979.28;5265179;28;20047;-71
2023/08/23 03:57:11;;;;;;;5.97;3.92;;;;;;;14.32;100.00;101979.63;5264649;28;20409;-71
2023/08/23 03:59:41;;;;;;;9.57;3.88;;;;;;;14.28;100.00;101981.78;5286072;28;20032;-71
2023/08/23 04:02:12;;;;;;;7.82;3.60;;;;;;;14.24;100.00;101983.13;5286148;28;20023;-71
2023/08/23 04:04:42;;;;;;;11.45;3.63;;;;;;;14.20;100.00;101988.00;5282044;28;20049;-71
2023/08/23 04:07:15;;;;;;;6.75;3.28;;;;;;;14.18;100.00;101990.00;5280019;28;20485;-71
2023/08/23 04:09:45;;;;;;;9.93;3.83;;;;;;;14.15;100.00;101990.31;5282948;28;20019;-71
2023/08/23 04:12:16;;;;;;;10.63;3.85;;;;;;;14.15;100.00;101997.59;5285024;28;20023;-71
2023/08/23 04:14:46;;;;;;;12.75;5.13;;;;;;;14.09;100.00;101988.28;5272571;28;20489;-71
2023/08/23 04:17:17;;;;;;;11.70;4.80;;;;;;;14.08;100.00;101989.28;5263889;28;20024;-70
2023/08/23 04:19:47;;;;;;;10.43;4.40;;;;;;;14.09;100.00;101982.03;5265555;28;20389;-71
2023/08/23 04:22:18;;;;;;;7.13;4.30;;;;;;;14.10;100.00;101981.03;5265435;28;20293;-71
2023/08/23 04:24:49;;;;;;;6.30;4.13;;;;;;;14.08;100.00;101981.19;5266803;28;20110;-71
2023/08/23 04:27:19;;;;;;;6.93;4.00;;;;;;;14.08;100.00;101973.09;5271758;28;20118;-71
2023/08/23 04:29:50;;;;;;;7.95;4.05;;;;;;;14.09;100.00;101979.34;5269586;28;20503;-70
2023/08/23 04:32:20;;;;;;;5.65;3.92;;;;;;;14.08;100.00;101970.41;5265465;28;20032;-71
2023/08/23 04:34:51;;;;;;;9.57;3.47;;;;;;;14.06;100.00;101971.59;5265160;28;20023;-71
2023/08/23 04:37:21;;;;;;;7.75;3.22;;;;;;;14.03;100.00;101967.34;5263457;28;20427;-70
2023/08/23 04:39:52;;;;;;;12.05;4.15;;;;;;;14.00;100.00;101964.97;5264595;28;20031;-70
2023/08/23 04:42:22;;;;;;;9.93;3.60;;;;;;;13.97;100.00;101963.44;5264635;28;20016;-70
2023/08/23 04:44:53;;;;;;;16.83;2.42;;;;;;;13.90;100.00;101965.09;5270977;28;20034;-70
2023/08/23 04:47:23;;;;;;;4.03;2.13;;;;;;;13.87;100.00;101964.59;5282476;28;20468;-71
2023/08/23 04:49:54;;;;;;;3.90;2.70;;;;;;;13.85;100.00;101961.19;5284655;28;20031;-70
2023/08/23 04:52:27;;;;;;;6.50;3.88;;;;;;;13.85;100.00;101961.19;5270052;28;20059;-70
2023/08/23 04:54:57;;;;;;;8.90;4.63;;;;;;;13.84;100.00;101968.44;5265025;28;20027;-70
2023/08/23 04:57:28;;;;;;;11.70;4.75;;;;;;;13.86;100.00;101971.84;5279271;28;20396;-70
2023/08/23 04:59:58;;;;;;;10.88;5.50;;;;;;;13.90;100.00;101975.03;5285113;28;20438;-71
2023/08/23 05:02:29;;;;;;;10.77;5.18;;;;;;;13.91;100.00;101966.78;5279963;28;20028;-73
2023/08/23 05:04:59;;;;;;;8.27;5.25;;;;;;;13.90;100.00;101964.25;5272529;28;20026;-73
2023/08/23 05:07:29;;;;;;;9.65;5.85;;;;;;;13.93;100.00;101966.63;5260448;28;20067;-73
2023/08/23 05:10:01;;;;;;;14.23;5.47;;;;;;;13.96;100.00;101966.31;5273809;28;20028;-73
2023/08/23 05:12:32;;;;;;;11.70;5.32;;;;;;;14.02;100.00;101962.13;5271657;28;20039;-73
2023/08/23 05:15:04;;;;;;;8.15;4.68;;;;;;;14.05;100.00;101967.19;5271112;28;20096;-73
2023/08/23 05:17:34;;;;;;;11.80;5.22;;;;;;;14.07;100.00;101965.19;5283252;28;20027;-73
2023/08/23 05:20:05;;;;;;;8.15;4.63;;;;;;;14.09;100.00;101973.94;5288901;28;20511;-73
2023/08/23 05:22:37;;;;;;;14.30;4.70;;;;;;;14.11;100.00;101980.06;5271192;28;20039;-73
2023/08/23 05:25:07;;;;;;;9.20;4.60;;;;;;;14.18;100.00;101981.06;5289082;28;20028;-73
2023/08/23 05:27:38;;;;;;;8.95;4.50;;;;;;;14.27;100.00;101977.41;5269907;28;20420;-73
2023/08/23 05:30:09;;;;;;;6.95;4.35;;;;;;;14.38;100.00;101989.75;5270196;28;20026;-73
2023/08/23 05:32:39;;;;;;;9.73;4.60;;;;;;;14.47;100.00;101999.59;5268687;28;20473;-73
2023/08/23 05:35:10;;;;;;;8.93;4.50;;;;;;;14.53;100.00;102004.34;5269615;28;20510;-73
2023/08/23 05:37:41;;;;;;;11.32;4.60;;;;;;;14.61;100.00;102006.22;5268562;28;20028;-73
2023/08/23 05:40:11;;;;;;;7.85;4.22;;;;;;;14.67;100.00;102000.19;5250955;28;20453;-73
2023/08/23 05:42:42;;;;;;;11.32;4.20;;;;;;;14.75;100.00;102005.59;5269020;28;20028;-73
2023/08/23 05:45:12;;;;;;;7.60;4.30;;;;;;;14.82;100.00;101997.69;5268422;28;20028;-73
2023/08/23 05:47:43;;;;;;;6.53;4.00;;;;;;;14.87;100.00;101992.63;5279854;28;20110;-73
2023/08/23 05:50:13;;;;;;;10.50;4.43;;;;;;;14.96;100.00;101994.28;5268670;28;20028;-73
2023/08/23 05:52:44;;;;;;;10.38;4.50;;;;;;;15.06;100.00;102002.25;5269189;28;20208;-73
2023/08/23 05:55:14;;;;;;;13.48;4.97;;;;;;;15.33;100.00;102001.09;5267952;28;20040;-73
2023/08/23 05:57:45;;;;;;;8.98;4.53;;;;;;;15.83;100.00;102000.88;5273004;28;20034;-73
2023/08/23 06:00:16;;;;;;;10.55;3.80;;;;;;;16.44;100.00;102006.59;5288609;28;20020;-73
2023/08/23 06:02:46;;;;;;;9.15;3.85;;;;;;;17.12;100.00;101997.72;5280972;28;20080;-73
2023/08/23 06:05:17;;;;;;;12.98;4.03;;;;;;;17.68;100.00;102006.38;5282017;28;20024;-73
2023/08/23 06:07:47;;;;;;;9.93;3.60;;;;;;;18.24;100.00;102004.09;5282447;28;20020;-73
2023/08/23 06:10:18;;;;;;;9.13;4.00;;;;;;;18.76;100.00;101999.50;5281089;28;20020;-73
2023/08/23 06:12:48;;;;;;;8.23;4.80;;;;;;;19.34;100.00;101998.41;5288579;28;20072;-73
2023/08/23 06:15:19;;;;;;;8.75;5.35;;;;;;;19.83;100.00;102010.31;5288289;28;20026;-73
2023/08/23 06:17:49;;;;;;;8.73;5.15;;;;;;;20.13;100.00;101994.56;5286453;28;20016;-73
2023/08/23 06:20:20;;;;;;;11.48;4.97;;;;;;;20.51;100.00;101986.81;5282980;28;20031;-74
2023/08/23 06:22:51;;;;;;;11.90;5.82;;;;;;;20.90;100.00;102005.19;5279309;28;20011;-74
2023/08/23 06:25:22;;;;;;;11.85;5.78;;;;;;;21.24;100.00;102008.81;5263558;28;20031;-74
2023/08/23 06:27:53;;;;;;;14.52;7.15;;;;;;;21.67;100.00;102024.78;5279308;28;20028;-74
2023/08/23 06:30:23;;;;;;;16.90;7.85;;;;;;;22.08;100.00;102018.19;5287711;28;20027;-74
2023/08/23 06:32:54;;;;;;;11.63;7.55;;;;;;;22.47;100.00;102009.03;5274202;28;20032;-71
2023/08/23 06:35:26;;;;;;;15.02;7.20;;;;;;;22.87;100.00;102015.16;5287807;28;20028;-71
2023/08/23 06:37:56;;;;;;;13.00;6.97;;;;;;;23.21;100.00;102010.31;5284379;28;20035;-72
2023/08/23 06:40:27;;;;;;;16.98;6.85;;;;;;;23.43;100.00;102014.34;5277290;28;20027;-71
2023/08/23 06:42:57;;;;;;;16.90;7.28;;;;;;;23.58;100.00;102013.19;5283343;28;20344;-71
2023/08/23 06:45:28;;;;;;;11.93;7.53;;;;;;;23.70;100.00;102015.00;5266092;28;20057;-72
2023/08/23 06:47:58;;;;;;;16.55;7.68;;;;;;;23.75;100.00;102017.06;5264758;28;20034;-71
2023/08/23 06:50:29;;;;;;;14.90;7.25;;;;;;;23.97;100.00;102020.19;5269806;28;20034;-71
2023/08/23 06:52:59;;;;;;;10.88;6.47;;;;;;;24.16;100.00;102024.63;5278041;28;20024;-71
2023/08/23 06:55:31;;;;;;;12.60;6.30;;;;;;;24.24;100.00;102031.69;5263949;28;20039;-71
2023/08/23 06:58:03;;;;;;;17.13;7.07;;;;;;;24.35;100.00;102036.44;5262961;28;20378;-71
2023/08/23 07:00:35;;;;;;;13.93;5.72;;;;;;;24.76;100.00;102033.00;5280373;28;20390;-72
2023/08/23 07:03:06;;;;;;;11.73;6.65;;;;;;;24.77;100.00;102033.81;5285519;28;20019;-72
2023/08/23 07:05:37;;;;;;;11.57;5.38;;;;;;;25.20;100.00;102035.53;5284107;28;20028;-72
2023/08/23 07:08:08;;;;;;;9.30;5.63;;;;;;;25.36;100.00;102042.28;5284769;28;20019;-71
2023/08/23 07:10:38;;;;;;;14.52;7.28;;;;;;;25.12;100.00;102038.63;5278136;28;20032;-71
2023/08/23 07:13:09;;;;;;;17.27;7.53;;;;;;;24.77;100.00;102040.13;5264654;28;20342;-71
2023/08/23 07:15:40;;;;;;;11.82;7.07;;;;;;;25.00;100.00;102042.16;5277234;28;20028;-71
2023/08/23 07:18:11;;;;;;;12.88;7.10;;;;;;;24.86;100.00;102040.66;5277778;28;20027;-70
2023/08/23 07:20:41;;;;;;;14.05;5.93;;;;;;;25.70;100.00;102038.69;5277369;28;20386;-70
2023/08/23 07:23:12;;;;;;;13.77;6.78;;;;;;;25.58;100.00;102037.88;5266530;28;20069;-71
2023/08/23 07:25:44;;;;;;;16.02;7.10;;;;;;;25.49;100.00;102045.63;5284689;28;20176;-71
2023/08/23 07:28:14;;;;;;;13.23;6.75;;;;;;;25.43;100.00;102043.00;5283010;28;20087;-70
2023/08/23 07:30:46;;;;;;;9.90;6.05;;;;;;;25.87;100.00;102038.88;5256443;28;20023;-70
2023/08/23 07:33:16;;;;;;;13.98;6.93;;;;;;;25.84;100.00;102028.34;5267651;28;20066;-71
2023/08/23 07:35:55;;;;;;;10.48;5.20;;;;;;;26.39;100.00;102035.31;5275793;28;20059;-71
2023/08/23 07:38:28;;;;;;;11.75;6.32;;;;;;;26.27;100.00;102038.13;5285103;28;20081;-71
2023/08/23 07:41:03;;;;;;;13.50;6.75;;;;;;;26.16;100.00;102036.22;5270845;28;20027;-71
2023/08/23 07:43:34;;;;;;;14.43;6.55;;;;;;;26.11;100.00;102036.13;5263942;28;20043;-70
2023/08/23 07:46:04;;;;;;;12.45;6.00;;;;;;;26.13;100.00;102037.53;5263221;28;20067;-71
2023/08/23 07:48:35;;;;;;;12.65;6.60;;;;;;;26.25;100.00;102037.50;5264192;28;20079;-71
2023/08/23 07:51:07;;;;;;;15.55;6.90;;;;;;;26.40;100.00;102031.50;5281027;28;20028;-71
2023/08/23 07:53:38;;;;;;;14.27;6.72;;;;;;;26.63;100.00;102027.88;5285140;28;20106;-71
2023/08/23 07:56:08;;;;;;;16.80;7.85;;;;;;;26.67;100.00;102023.56;5270135;28;20452;-71
2023/08/23 07:58:40;;;;;;;10.98;4.97;;;;;;;27.17;100.00;102022.84;5271268;28;20107;-71
2023/08/23 08:01:11;;;;;;;9.95;4.90;;;;;;;27.16;100.00;102021.16;5285250;28;20434;-71
2023/08/23 08:03:41;;;;;;;9.80;4.70;;;;;;;26.90;100.00;102026.19;5270523;28;20027;-71
2023/08/23 08:06:12;;;;;;;10.30;4.50;;;;;;;26.84;100.00;102028.00;5282948;27;20059;-71
2023/08/23 08:08:43;;;;;;;7.85;4.10;;;;;;;27.29;100.00;102031.88;5275288;28;20027;-71
2023/08/23 08:11:14;;;;;;;9.68;4.07;;;;;;;27.08;100.00;102036.19;5275288;28;20032;-71
2023/08/23 08:13:45;;;;;;;8.68;4.13;;;;;;;27.03;100.00;102028.63;5281664;28;20077;-71
2023/08/23 08:16:15;;;;;;;8.13;3.58;;;;;;;28.24;100.00;102035.53;5284673;28;20423;-71
2023/08/23 08:18:46;;;;;;;7.57;4.00;;;;;;;27.98;100.00;102035.19;5279715;28;20058;-71
2023/08/23 08:21:18;;;;;;;6.82;3.40;;;;;;;28.02;100.00;102039.13;5277033;28;20062;-71
2023/08/23 08:23:49;;;;;;;9.52;4.03;;;;;;;27.22;100.00;102037.56;5284350;28;20059;-72
2023/08/23 08:26:20;;;;;;;7.55;3.95;;;;;;;27.38;100.00;102037.81;5283535;28;20100;-71
2023/08/23 08:28:50;;;;;;;8.88;3.50;;;;;;;27.58;100.00;102029.88;5285050;28;20480;-71
2023/08/23 08:31:21;;;;;;;11.25;4.00;;;;;;;28.00;100.00;102023.91;5271566;28;20034;-71
2023/08/23 08:33:51;;;;;;;5.63;2.92;;;;;;;28.86;100.00;102030.50;5275742;28;20389;-71
2023/08/23 08:36:22;;;;;;;6.45;3.30;;;;;;;29.20;100.00;102029.47;5263592;28;20024;-71
2023/08/23 08:38:52;;;;;;;9.07;3.55;;;;;;;28.58;100.00;102028.00;5274183;28;20025;-71
2023/08/23 08:41:23;;;;;;;7.93;4.22;;;;;;;28.55;100.00;102026.56;5291602;27;20538;-71
2023/08/23 08:43:53;;;;;;;7.22;3.08;;;;;;;28.48;100.00;102025.94;5295869;27;20015;-71
2023/08/23 08:46:24;;;;;;;11.75;4.20;;;;;;;28.65;100.00;102025.84;5293207;27;20110;-72
2023/08/23 08:48:55;;;;;;;7.10;3.33;;;;;;;28.88;100.00;102030.25;5295311;27;20487;-71
2023/08/23 08:51:27;;;;;;;8.20;3.55;;;;;;;28.94;100.00;102034.75;5296039;27;20023;-72
2023/08/23 08:53:58;;;;;;;8.95;4.25;;;;;;;28.54;100.00;102021.31;5286036;27;20888;-73
2023/08/23 08:56:29;;;;;;;11.05;4.40;;;;;;;28.38;100.00;102020.31;5288651;27;20031;-72
2023/08/23 08:58:59;;;;;;;8.75;3.92;;;;;;;28.60;100.00;102032.16;5292233;27;20043;-72
2023/08/23 09:01:33;;;;;;;6.10;3.72;;;;;;;28.92;100.00;102039.69;5296757;27;20387;-72
2023/08/23 09:04:03;;;;;;;8.43;3.97;;;;;;;28.89;100.00;102043.78;5290739;27;20028;-72
2023/08/23 09:06:37;;;;;;;8.43;3.72;;;;;;;29.13;100.00;102038.00;5292402;28;20215;-73
2023/08/23 09:09:07;;;;;;;7.15;3.72;;;;;;;28.91;100.00;102049.06;5289925;28;20481;-72
2023/08/23 09:11:38;;;;;;;8.43;4.20;;;;;;;29.12;100.00;102045.44;5292915;28;20019;-72
2023/08/23 09:14:27;;;;;;;10.57;4.30;;;;;;;29.46;100.00;102047.09;5293507;28;20279;-73
2023/08/23 09:16:58;;;;;;;8.52;4.20;;;;;;;29.45;100.00;102054.56;5282568;28;20119;-72
2023/08/23 09:19:29;;;;;;;9.82;4.43;;;;;;;28.98;100.00;102054.41;5286319;28;20099;-72
2023/08/23 09:21:59;;;;;;;6.43;3.70;;;;;;;29.32;100.00;102044.81;5270619;28;20126;-72
2023/08/23 09:24:30;;;;;;;9.02;4.47;;;;;;;29.15;100.00;102044.91;5277175;28;20373;-72
2023/08/23 09:27:01;;;;;;;8.15;3.92;;;;;;;29.10;100.00;102050.38;5287124;28;20119;-72
2023/08/23 09:29:31;;;;;;;9.70;3.95;;;;;;;28.83;100.00;102055.06;5288322;28;20472;-72
2023/08/23 09:32:05;;;;;;;6.47;3.55;;;;;;;28.66;100.00;102060.66;5288185;28;20046;-72
2023/08/23 09:34:35;;;;;;;12.40;4.10;;;;;;;28.61;100.00;102064.19;5283251;28;20031;-73
2023/08/23 09:37:07;;;;;;;11.05;4.32;;;;;;;28.67;100.00;102055.97;5285558;28;20026;-72
2023/08/23 09:39:38;;;;;;;5.68;2.88;;;;;;;29.09;100.00;102048.72;5288634;28;20038;-73
2023/08/23 09:42:13;;;;;;;5.57;2.90;;;;;;;28.80;100.00;102045.34;5291332;28;20472;-72
2023/08/23 09:44:46;;;;;;;9.40;3.00;;;;;;;28.34;100.00;102052.25;5288992;28;20794;-72
2023/08/23 09:47:21;;;;;;;9.23;3.58;;;;;;;28.26;100.00;102039.69;5278863;28;20042;-73
2023/08/23 09:49:52;;;;;;;10.50;3.03;;;;;;;28.65;100.00;102045.19;5267079;28;20557;-72
2023/08/23 09:52:24;;;;;;;6.68;2.90;;;;;;;28.99;100.00;102047.78;5243489;28;20028;-73
2023/08/23 09:55:12;;;;;;;7.00;2.50;;;;;;;29.27;100.00;102053.06;5261008;28;20020;-73
2023/08/23 09:57:43;;;;;;;5.47;2.53;;;;;;;29.54;100.00;102058.56;5264751;28;20659;-73
2023/08/23 10:00:15;;;;;;;12.75;3.20;;;;;;;29.20;100.00;102054.34;5281914;28;20024;-72
2023/08/23 10:02:46;;;;;;;5.15;2.75;;;;;;;29.42;100.00;102050.41;5281700;28;20030;-73
2023/08/23 10:05:18;;;;;;;5.15;3.20;;;;;;;29.11;100.00;102057.56;5283811;28;20649;-72
2023/08/23 10:07:49;;;;;;;6.55;2.67;;;;;;;28.93;100.00;102044.13;5284379;28;20019;-73
2023/08/23 10:10:20;;;;;;;8.25;2.05;;;;;;;28.75;100.00;102047.22;5283115;28;20477;-72
2023/08/23 10:12:53;;;;;;;7.07;2.15;;;;;;;28.51;100.00;102041.97;5285831;28;20102;-72
2023/08/23 10:15:42;;;;;;;8.77;2.65;;;;;;;28.64;100.00;102041.59;5285516;28;20076;-72
2023/08/23 10:18:14;;;;;;;6.63;2.70;;;;;;;28.57;100.00;102035.44;5284348;28;20051;-73
2023/08/23 10:20:45;;;;;;;16.13;2.95;;;;;;;28.42;100.00;102034.44;5273056;28;20445;-72
2023/08/23 10:23:16;;;;;;;8.15;2.20;;;;;;;28.35;100.00;102029.91;5285729;28;20015;-72
2023/08/23 10:25:48;;;;;;;5.55;2.50;;;;;;;28.26;100.00;102019.56;5266048;28;20038;-72
2023/08/23 10:28:19;;;;;;;7.70;2.00;;;;;;;28.28;100.00;102023.75;5271701;28;20461;-73
2023/08/23 10:30:51;;;;;;;8.80;2.10;;;;;;;28.39;100.00;102019.22;5285475;28;20051;-73
2023/08/23 10:33:23;;;;;;;9.57;2.22;;;;;;;28.43;100.00;102016.78;5285623;28;20346;-73
2023/08/23 10:35:53;;;;;;;4.13;2.05;;;;;;;28.39;100.00;102016.44;5283723;28;20224;-72
2023/08/23 10:38:25;;;;;;;7.43;2.20;;;;;;;28.36;100.00;102023.31;5278480;28;20481;-73
2023/08/23 10:40:59;;;;;;;10.52;2.35;;;;;;;28.35;100.00;102013.34;5277470;28;20502;-73
2023/08/23 10:43:30;;;;;;;6.43;2.60;;;;;;;28.42;100.00;102010.44;5285324;28;20579;-73
2023/08/23 10:46:07;;;;;;;9.02;2.20;;;;;;;28.47;100.00;102015.19;5281807;28;20237;-73
2023/08/23 10:48:39;;;;;;;6.53;2.00;;;;;;;28.59;100.00;102005.66;5246214;28;20493;-73
2023/08/23 10:51:10;;;;;;;4.85;2.17;;;;;;;28.23;100.00;102012.63;5267403;28;20059;-73
2023/08/23 10:53:41;;;;;;;3.70;2.03;;;;;;;28.17;100.00;102004.56;5284645;28;20030;-73
2023/08/23 10:56:12;;;;;;;5.95;2.40;;;;;;;28.07;100.00;102008.84;5275621;28;20545;-73
2023/08/23 10:58:44;;;;;;;8.60;2.28;;;;;;;28.19;100.00;102005.97;5282584;28;20017;-73
2023/08/23 11:01:14;;;;;;;8.65;2.25;;;;;;;28.46;100.00;101997.75;5284691;28;20023;-73
2023/08/23 11:03:45;;;;;;;7.30;1.85;;;;;;;28.57;100.00;101990.44;5285584;28;20027;-73
2023/08/23 11:06:15;;;;;;;7.47;2.20;;;;;;;28.67;100.00;101998.84;5284741;28;20080;-73
2023/08/23 11:08:46;;;;;;;6.90;2.47;;;;;;;28.65;100.00;101992.72;5283837;27;20046;-73
2023/08/23 11:11:17;;;;;;;7.63;2.22;;;;;;;28.69;100.00;101979.25;5286552;27;20469;-73
2023/08/23 11:13:47;;;;;;;5.30;1.95;;;;;;;28.74;100.00;101979.28;5287659;27;20019;-73
2023/08/23 11:16:18;;;;;;;4.88;1.48;;;;;;;28.83;100.00;101977.72;5279585;28;20027;-73
2023/08/23 11:18:49;;;;;;;4.00;2.03;;;;;;;28.79;100.00;101982.94;5288632;27;20053;-73
2023/08/23 11:21:20;;;;;;;5.05;2.10;;;;;;;28.82;100.00;101976.06;5286171;28;20038;-73
2023/08/23 11:23:50;;;;;;;4.75;1.98;;;;;;;28.87;100.00;101976.94;5282809;27;20477;-73
2023/08/23 11:26:21;;;;;;;5.30;1.98;;;;;;;28.95;100.00;101975.66;5283208;28;20023;-73
2023/08/23 11:28:51;;;;;;;5.50;1.90;;;;;;;29.09;100.00;101976.91;5285660;28;20461;-73
2023/08/23 11:31:22;;;;;;;5.90;1.85;;;;;;;29.28;100.00;101976.50;5285860;28;20091;-73
2023/08/23 11:33:53;;;;;;;5.63;1.92;;;;;;;29.48;100.00;101979.41;5290845;27;20445;-72